sensor_id;sensor_type;location;lat;lon;timestamp;P1;durP1;ratioP1;P2;durP2;ratioP2
55063;SDS011;40963;52.168;21.296;2023-09-18T00:00:44;6.10;;;4.88;;
55063;SDS011;40963;52.168;21.296;2023-09-18T00:03:17;8.82;;;5.45;;
55063;SDS011;40963;52.168;21.296;2023-09-18T00:05:44;6.40;;;4.95;;
55063;SDS011;40963;52.168;21.296;2023-09-18T00:08:11;9.15;;;5.43;;
55063;SDS011;40963;52.168;21.296;2023-09-18T00:10:36;9.93;;;5.47;;
55063;SDS011;40963;52.168;21.296;2023-09-18T00:13:02;11.23;;;5.82;;
55063;SDS011;40963;52.168;21.296;2023-09-18T00:15:28;12.30;;;5.00;;
55063;SDS011;40963;52.168;21.296;2023-09-18T00:17:53;8.05;;;5.20;;
55063;SDS011;40963;52.168;21.296;2023-09-18T00:20:21;7.80;;;5.32;;
55063;SDS011;40963;52.168;21.296;2023-09-18T00:22:53;6.65;;;5.22;;
55063;SDS011;40963;52.168;21.296;2023-09-18T00:25:19;10.82;;;5.57;;
55063;SDS011;40963;52.168;21.296;2023-09-18T00:27:45;8.98;;;5.50;;
55063;SDS011;40963;52.168;21.296;2023-09-18T00:30:11;10.00;;;5.50;;
55063;SDS011;40963;52.168;21.296;2023-09-18T00:32:36;10.93;;;5.15;;
55063;SDS011;40963;52.168;21.296;2023-09-18T00:35:02;6.88;;;5.15;;
55063;SDS011;40963;52.168;21.296;2023-09-18T00:37:28;7.97;;;5.30;;
55063;SDS011;40963;52.168;21.296;2023-09-18T00:39:54;9.50;;;5.68;;
55063;SDS011;40963;52.168;21.296;2023-09-18T00:42:20;7.10;;;5.20;;
55063;SDS011;40963;52.168;21.296;2023-09-18T00:44:47;7.35;;;5.53;;
55063;SDS011;40963;52.168;21.296;2023-09-18T00:47:13;9.63;;;5.72;;
55063;SDS011;40963;52.168;21.296;2023-09-18T00:49:40;9.88;;;6.00;;
55063;SDS011;40963;52.168;21.296;2023-09-18T00:52:08;10.07;;;5.93;;
55063;SDS011;40963;52.168;21.296;2023-09-18T00:54:35;6.22;;;5.38;;
55063;SDS011;40963;52.168;21.296;2023-09-18T00:57:03;8.68;;;5.65;;
55063;SDS011;40963;52.168;21.296;2023-09-18T00:59:29;7.97;;;5.63;;
55063;SDS011;40963;52.168;21.296;2023-09-18T01:01:56;6.95;;;5.32;;
55063;SDS011;40963;52.168;21.296;2023-09-18T01:04:21;8.68;;;4.88;;
55063;SDS011;40963;52.168;21.296;2023-09-18T01:06:50;8.50;;;5.82;;
55063;SDS011;40963;52.168;21.296;2023-09-18T01:09:16;7.85;;;5.45;;
55063;SDS011;40963;52.168;21.296;2023-09-18T01:12:01;9.10;;;5.72;;
55063;SDS011;40963;52.168;21.296;2023-09-18T01:14:40;10.02;;;5.70;;
55063;SDS011;40963;52.168;21.296;2023-09-18T01:17:20;11.77;;;6.22;;
55063;SDS011;40963;52.168;21.296;2023-09-18T01:19:46;7.82;;;5.50;;
55063;SDS011;40963;52.168;21.296;2023-09-18T01:22:17;9.35;;;5.70;;
55063;SDS011;40963;52.168;21.296;2023-09-18T01:24:44;9.90;;;5.93;;
55063;SDS011;40963;52.168;21.296;2023-09-18T01:27:12;7.53;;;5.75;;
55063;SDS011;40963;52.168;21.296;2023-09-18T01:29:39;8.07;;;5.95;;
55063;SDS011;40963;52.168;21.296;2023-09-18T01:32:05;8.80;;;6.05;;
55063;SDS011;40963;52.168;21.296;2023-09-18T01:34:33;14.68;;;5.60;;
55063;SDS011;40963;52.168;21.296;2023-09-18T01:37:02;6.93;;;5.22;;
55063;SDS011;40963;52.168;21.296;2023-09-18T01:39:30;9.40;;;5.82;;
55063;SDS011;40963;52.168;21.296;2023-09-18T01:42:01;8.85;;;5.90;;
55063;SDS011;40963;52.168;21.296;2023-09-18T01:44:30;8.48;;;5.97;;
55063;SDS011;40963;52.168;21.296;2023-09-18T01:47:01;11.13;;;6.10;;
55063;SDS011;40963;52.168;21.296;2023-09-18T01:49:29;8.95;;;5.85;;
55063;SDS011;40963;52.168;21.296;2023-09-18T01:51:57;10.57;;;6.00;;
55063;SDS011;40963;52.168;21.296;2023-09-18T01:54:22;8.07;;;5.53;;
55063;SDS011;40963;52.168;21.296;2023-09-18T01:56:48;11.73;;;5.80;;
55063;SDS011;40963;52.168;21.296;2023-09-18T01:59:14;7.97;;;5.90;;
55063;SDS011;40963;52.168;21.296;2023-09-18T02:01:39;10.75;;;5.80;;
55063;SDS011;40963;52.168;21.296;2023-09-18T02:04:05;8.73;;;6.18;;
55063;SDS011;40963;52.168;21.296;2023-09-18T02:06:31;9.40;;;5.43;;
55063;SDS011;40963;52.168;21.296;2023-09-18T02:08:56;7.57;;;5.45;;
55063;SDS011;40963;52.168;21.296;2023-09-18T02:11:22;15.50;;;5.97;;
55063;SDS011;40963;52.168;21.296;2023-09-18T02:13:48;10.65;;;6.03;;
55063;SDS011;40963;52.168;21.296;2023-09-18T02:16:13;8.35;;;5.78;;
55063;SDS011;40963;52.168;21.296;2023-09-18T02:18:39;9.45;;;5.85;;
55063;SDS011;40963;52.168;21.296;2023-09-18T02:21:05;14.63;;;6.35;;
55063;SDS011;40963;52.168;21.296;2023-09-18T02:23:30;9.88;;;6.40;;
55063;SDS011;40963;52.168;21.296;2023-09-18T02:25:56;8.77;;;6.10;;
55063;SDS011;40963;52.168;21.296;2023-09-18T02:28:23;8.80;;;5.68;;
55063;SDS011;40963;52.168;21.296;2023-09-18T02:30:48;9.13;;;5.50;;
55063;SDS011;40963;52.168;21.296;2023-09-18T02:33:14;8.15;;;5.55;;
55063;SDS011;40963;52.168;21.296;2023-09-18T02:35:40;7.25;;;4.97;;
55063;SDS011;40963;52.168;21.296;2023-09-18T02:38:09;8.77;;;4.95;;
55063;SDS011;40963;52.168;21.296;2023-09-18T02:40:35;7.55;;;5.55;;
55063;SDS011;40963;52.168;21.296;2023-09-18T02:43:00;8.45;;;5.18;;
55063;SDS011;40963;52.168;21.296;2023-09-18T02:45:27;7.93;;;5.07;;
55063;SDS011;40963;52.168;21.296;2023-09-18T02:47:53;11.05;;;6.38;;
55063;SDS011;40963;52.168;21.296;2023-09-18T02:50:18;9.13;;;5.53;;
55063;SDS011;40963;52.168;21.296;2023-09-18T02:52:44;8.55;;;5.13;;
55063;SDS011;40963;52.168;21.296;2023-09-18T02:55:10;7.68;;;5.88;;
55063;SDS011;40963;52.168;21.296;2023-09-18T02:57:35;7.80;;;5.53;;
55063;SDS011;40963;52.168;21.296;2023-09-18T03:00:01;9.73;;;5.78;;
55063;SDS011;40963;52.168;21.296;2023-09-18T03:02:28;8.35;;;5.55;;
55063;SDS011;40963;52.168;21.296;2023-09-18T03:04:54;13.52;;;5.65;;
55063;SDS011;40963;52.168;21.296;2023-09-18T03:07:19;9.77;;;5.75;;
55063;SDS011;40963;52.168;21.296;2023-09-18T03:09:45;10.20;;;5.70;;
55063;SDS011;40963;52.168;21.296;2023-09-18T03:12:10;7.95;;;5.85;;
55063;SDS011;40963;52.168;21.296;2023-09-18T03:14:36;10.82;;;5.88;;
55063;SDS011;40963;52.168;21.296;2023-09-18T03:17:02;10.15;;;6.03;;
55063;SDS011;40963;52.168;21.296;2023-09-18T03:19:27;8.85;;;5.28;;
55063;SDS011;40963;52.168;21.296;2023-09-18T03:21:53;11.27;;;6.10;;
55063;SDS011;40963;52.168;21.296;2023-09-18T03:24:18;9.77;;;5.68;;
55063;SDS011;40963;52.168;21.296;2023-09-18T03:26:44;8.40;;;5.53;;
55063;SDS011;40963;52.168;21.296;2023-09-18T03:29:10;10.15;;;5.85;;
55063;SDS011;40963;52.168;21.296;2023-09-18T03:31:35;8.55;;;5.93;;
55063;SDS011;40963;52.168;21.296;2023-09-18T03:34:01;7.50;;;5.68;;
55063;SDS011;40963;52.168;21.296;2023-09-18T03:36:27;10.68;;;5.18;;
55063;SDS011;40963;52.168;21.296;2023-09-18T03:38:52;9.02;;;5.60;;
55063;SDS011;40963;52.168;21.296;2023-09-18T03:41:18;8.38;;;5.70;;
55063;SDS011;40963;52.168;21.296;2023-09-18T03:43:43;8.98;;;5.05;;
55063;SDS011;40963;52.168;21.296;2023-09-18T03:46:09;9.38;;;5.95;;
55063;SDS011;40963;52.168;21.296;2023-09-18T03:48:35;10.23;;;5.93;;
55063;SDS011;40963;52.168;21.296;2023-09-18T03:51:06;9.43;;;5.57;;
55063;SDS011;40963;52.168;21.296;2023-09-18T03:53:33;9.10;;;5.68;;
55063;SDS011;40963;52.168;21.296;2023-09-18T03:55:59;7.28;;;4.93;;
55063;SDS011;40963;52.168;21.296;2023-09-18T03:58:25;7.47;;;5.20;;
55063;SDS011;40963;52.168;21.296;2023-09-18T04:00:50;8.40;;;5.90;;
55063;SDS011;40963;52.168;21.296;2023-09-18T04:03:16;8.18;;;5.63;;
55063;SDS011;40963;52.168;21.296;2023-09-18T04:05:42;9.02;;;5.70;;
55063;SDS011;40963;52.168;21.296;2023-09-18T04:08:08;13.10;;;6.03;;
55063;SDS011;40963;52.168;21.296;2023-09-18T04:10:34;8.98;;;5.43;;
55063;SDS011;40963;52.168;21.296;2023-09-18T04:12:59;6.63;;;5.25;;
55063;SDS011;40963;52.168;21.296;2023-09-18T04:15:25;9.30;;;6.03;;
55063;SDS011;40963;52.168;21.296;2023-09-18T04:17:52;13.07;;;6.03;;
55063;SDS011;40963;52.168;21.296;2023-09-18T04:20:18;9.07;;;5.97;;
55063;SDS011;40963;52.168;21.296;2023-09-18T04:22:44;9.05;;;5.85;;
55063;SDS011;40963;52.168;21.296;2023-09-18T04:25:14;10.70;;;5.88;;
55063;SDS011;40963;52.168;21.296;2023-09-18T04:27:40;8.18;;;5.63;;
55063;SDS011;40963;52.168;21.296;2023-09-18T04:30:06;7.75;;;5.60;;
55063;SDS011;40963;52.168;21.296;2023-09-18T04:32:34;9.13;;;5.57;;
55063;SDS011;40963;52.168;21.296;2023-09-18T04:35:03;12.75;;;5.65;;
55063;SDS011;40963;52.168;21.296;2023-09-18T04:37:30;14.05;;;5.20;;
55063;SDS011;40963;52.168;21.296;2023-09-18T04:39:57;16.52;;;6.45;;
55063;SDS011;40963;52.168;21.296;2023-09-18T04:42:22;11.43;;;6.30;;
55063;SDS011;40963;52.168;21.296;2023-09-18T04:44:48;9.90;;;5.90;;
55063;SDS011;40963;52.168;21.296;2023-09-18T04:47:14;8.25;;;5.90;;
55063;SDS011;40963;52.168;21.296;2023-09-18T04:49:40;5.90;;;4.85;;
55063;SDS011;40963;52.168;21.296;2023-09-18T04:52:05;6.28;;;5.13;;
55063;SDS011;40963;52.168;21.296;2023-09-18T04:54:31;10.55;;;6.03;;
55063;SDS011;40963;52.168;21.296;2023-09-18T04:56:57;14.07;;;6.22;;
55063;SDS011;40963;52.168;21.296;2023-09-18T04:59:22;10.50;;;5.95;;
55063;SDS011;40963;52.168;21.296;2023-09-18T05:01:48;9.27;;;5.95;;
55063;SDS011;40963;52.168;21.296;2023-09-18T05:04:13;11.68;;;6.43;;
55063;SDS011;40963;52.168;21.296;2023-09-18T05:06:39;8.43;;;6.00;;
55063;SDS011;40963;52.168;21.296;2023-09-18T05:09:06;8.93;;;6.03;;
55063;SDS011;40963;52.168;21.296;2023-09-18T05:11:32;12.65;;;6.20;;
55063;SDS011;40963;52.168;21.296;2023-09-18T05:13:59;11.77;;;7.40;;
55063;SDS011;40963;52.168;21.296;2023-09-18T05:16:24;14.45;;;8.88;;
55063;SDS011;40963;52.168;21.296;2023-09-18T05:18:50;14.05;;;7.03;;
55063;SDS011;40963;52.168;21.296;2023-09-18T05:21:16;17.08;;;6.70;;
55063;SDS011;40963;52.168;21.296;2023-09-18T05:23:42;9.55;;;6.68;;
55063;SDS011;40963;52.168;21.296;2023-09-18T05:26:08;9.63;;;6.05;;
55063;SDS011;40963;52.168;21.296;2023-09-18T05:28:34;11.25;;;7.15;;
55063;SDS011;40963;52.168;21.296;2023-09-18T05:30:59;11.75;;;7.05;;
55063;SDS011;40963;52.168;21.296;2023-09-18T05:33:25;12.25;;;7.03;;
55063;SDS011;40963;52.168;21.296;2023-09-18T05:35:51;9.93;;;7.55;;
55063;SDS011;40963;52.168;21.296;2023-09-18T05:38:17;11.60;;;6.82;;
55063;SDS011;40963;52.168;21.296;2023-09-18T05:40:43;10.07;;;7.05;;
55063;SDS011;40963;52.168;21.296;2023-09-18T05:43:09;13.93;;;7.53;;
55063;SDS011;40963;52.168;21.296;2023-09-18T05:45:36;14.05;;;7.40;;
55063;SDS011;40963;52.168;21.296;2023-09-18T05:48:01;11.20;;;7.32;;
55063;SDS011;40963;52.168;21.296;2023-09-18T05:50:30;10.43;;;6.80;;
55063;SDS011;40963;52.168;21.296;2023-09-18T05:52:57;14.82;;;7.60;;
55063;SDS011;40963;52.168;21.296;2023-09-18T05:55:25;17.38;;;8.50;;
55063;SDS011;40963;52.168;21.296;2023-09-18T05:57:52;20.52;;;8.00;;
55063;SDS011;40963;52.168;21.296;2023-09-18T06:00:18;14.07;;;8.20;;
55063;SDS011;40963;52.168;21.296;2023-09-18T06:02:44;11.85;;;7.78;;
55063;SDS011;40963;52.168;21.296;2023-09-18T06:05:10;10.88;;;7.65;;
55063;SDS011;40963;52.168;21.296;2023-09-18T06:07:36;14.07;;;7.65;;
55063;SDS011;40963;52.168;21.296;2023-09-18T06:10:02;10.63;;;7.45;;
55063;SDS011;40963;52.168;21.296;2023-09-18T06:12:28;12.82;;;7.68;;
55063;SDS011;40963;52.168;21.296;2023-09-18T06:14:55;12.00;;;7.85;;
55063;SDS011;40963;52.168;21.296;2023-09-18T06:17:21;13.52;;;7.80;;
55063;SDS011;40963;52.168;21.296;2023-09-18T06:19:47;10.38;;;7.25;;
55063;SDS011;40963;52.168;21.296;2023-09-18T06:22:12;18.98;;;8.38;;
55063;SDS011;40963;52.168;21.296;2023-09-18T06:24:38;12.20;;;7.40;;
55063;SDS011;40963;52.168;21.296;2023-09-18T06:27:05;12.52;;;8.05;;
55063;SDS011;40963;52.168;21.296;2023-09-18T06:29:31;16.83;;;8.05;;
55063;SDS011;40963;52.168;21.296;2023-09-18T06:31:57;12.98;;;7.75;;
55063;SDS011;40963;52.168;21.296;2023-09-18T06:34:24;10.77;;;7.45;;
55063;SDS011;40963;52.168;21.296;2023-09-18T06:36:50;12.65;;;8.07;;
55063;SDS011;40963;52.168;21.296;2023-09-18T06:39:16;14.13;;;8.23;;
55063;SDS011;40963;52.168;21.296;2023-09-18T06:41:42;13.70;;;7.68;;
55063;SDS011;40963;52.168;21.296;2023-09-18T06:44:07;14.50;;;7.63;;
55063;SDS011;40963;52.168;21.296;2023-09-18T06:46:33;13.65;;;8.30;;
55063;SDS011;40963;52.168;21.296;2023-09-18T06:48:58;16.95;;;8.45;;
55063;SDS011;40963;52.168;21.296;2023-09-18T06:51:26;14.48;;;7.97;;
55063;SDS011;40963;52.168;21.296;2023-09-18T06:53:52;12.38;;;7.70;;
55063;SDS011;40963;52.168;21.296;2023-09-18T06:56:18;12.82;;;7.35;;
55063;SDS011;40963;52.168;21.296;2023-09-18T06:58:44;10.88;;;7.18;;
55063;SDS011;40963;52.168;21.296;2023-09-18T07:01:10;10.52;;;7.82;;
55063;SDS011;40963;52.168;21.296;2023-09-18T07:03:36;12.27;;;8.52;;
55063;SDS011;40963;52.168;21.296;2023-09-18T07:06:02;12.65;;;7.40;;
55063;SDS011;40963;52.168;21.296;2023-09-18T07:08:29;11.82;;;7.97;;
55063;SDS011;40963;52.168;21.296;2023-09-18T07:10:55;12.23;;;8.38;;
55063;SDS011;40963;52.168;21.296;2023-09-18T07:13:20;13.38;;;8.13;;
55063;SDS011;40963;52.168;21.296;2023-09-18T07:15:46;11.30;;;7.18;;
55063;SDS011;40963;52.168;21.296;2023-09-18T07:18:13;13.65;;;6.95;;
55063;SDS011;40963;52.168;21.296;2023-09-18T07:20:40;10.75;;;7.18;;
55063;SDS011;40963;52.168;21.296;2023-09-18T07:23:06;11.70;;;8.15;;
55063;SDS011;40963;52.168;21.296;2023-09-18T07:25:32;9.27;;;7.07;;
55063;SDS011;40963;52.168;21.296;2023-09-18T07:27:58;16.17;;;8.20;;
55063;SDS011;40963;52.168;21.296;2023-09-18T07:30:23;12.15;;;7.63;;
55063;SDS011;40963;52.168;21.296;2023-09-18T07:32:52;11.32;;;7.43;;
55063;SDS011;40963;52.168;21.296;2023-09-18T07:35:23;11.90;;;7.82;;
55063;SDS011;40963;52.168;21.296;2023-09-18T07:37:49;23.00;;;7.97;;
55063;SDS011;40963;52.168;21.296;2023-09-18T07:40:14;9.63;;;7.15;;
55063;SDS011;40963;52.168;21.296;2023-09-18T07:42:43;10.95;;;7.25;;
55063;SDS011;40963;52.168;21.296;2023-09-18T07:45:10;8.82;;;6.63;;
55063;SDS011;40963;52.168;21.296;2023-09-18T07:47:36;10.88;;;7.97;;
55063;SDS011;40963;52.168;21.296;2023-09-18T07:50:01;12.82;;;7.18;;
55063;SDS011;40963;52.168;21.296;2023-09-18T07:52:27;10.88;;;7.25;;
55063;SDS011;40963;52.168;21.296;2023-09-18T07:54:54;8.55;;;7.25;;
55063;SDS011;40963;52.168;21.296;2023-09-18T07:57:20;9.70;;;7.35;;
55063;SDS011;40963;52.168;21.296;2023-09-18T07:59:47;10.43;;;7.40;;
55063;SDS011;40963;52.168;21.296;2023-09-18T08:02:13;10.82;;;7.10;;
55063;SDS011;40963;52.168;21.296;2023-09-18T08:04:39;17.52;;;7.22;;
55063;SDS011;40963;52.168;21.296;2023-09-18T08:07:05;14.73;;;8.07;;
55063;SDS011;40963;52.168;21.296;2023-09-18T08:09:32;10.48;;;7.65;;
55063;SDS011;40963;52.168;21.296;2023-09-18T08:12:01;9.45;;;7.55;;
55063;SDS011;40963;52.168;21.296;2023-09-18T08:14:27;9.43;;;7.20;;
55063;SDS011;40963;52.168;21.296;2023-09-18T08:16:56;11.70;;;7.45;;
55063;SDS011;40963;52.168;21.296;2023-09-18T08:19:26;8.82;;;7.03;;
55063;SDS011;40963;52.168;21.296;2023-09-18T08:21:55;9.65;;;7.13;;
55063;SDS011;40963;52.168;21.296;2023-09-18T08:24:28;11.82;;;7.20;;
55063;SDS011;40963;52.168;21.296;2023-09-18T08:26:54;11.05;;;7.78;;
55063;SDS011;40963;52.168;21.296;2023-09-18T08:29:21;8.48;;;7.07;;
55063;SDS011;40963;52.168;21.296;2023-09-18T08:31:47;7.47;;;6.55;;
55063;SDS011;40963;52.168;21.296;2023-09-18T08:34:14;9.00;;;6.93;;
55063;SDS011;40963;52.168;21.296;2023-09-18T08:36:39;14.43;;;6.88;;
55063;SDS011;40963;52.168;21.296;2023-09-18T08:39:05;8.93;;;6.40;;
55063;SDS011;40963;52.168;21.296;2023-09-18T08:41:31;10.43;;;6.97;;
55063;SDS011;40963;52.168;21.296;2023-09-18T08:44:01;8.23;;;7.15;;
55063;SDS011;40963;52.168;21.296;2023-09-18T08:46:28;7.32;;;6.05;;
55063;SDS011;40963;52.168;21.296;2023-09-18T08:48:54;9.82;;;6.47;;
55063;SDS011;40963;52.168;21.296;2023-09-18T08:51:21;12.32;;;6.55;;
55063;SDS011;40963;52.168;21.296;2023-09-18T08:53:47;8.63;;;6.90;;
55063;SDS011;40963;52.168;21.296;2023-09-18T08:56:14;8.65;;;7.10;;
55063;SDS011;40963;52.168;21.296;2023-09-18T08:58:42;9.00;;;5.80;;
55063;SDS011;40963;52.168;21.296;2023-09-18T09:01:09;8.70;;;6.25;;
55063;SDS011;40963;52.168;21.296;2023-09-18T09:03:37;7.47;;;6.15;;
55063;SDS011;40963;52.168;21.296;2023-09-18T09:06:03;7.97;;;6.60;;
55063;SDS011;40963;52.168;21.296;2023-09-18T09:08:31;7.03;;;5.82;;
55063;SDS011;40963;52.168;21.296;2023-09-18T09:10:57;9.85;;;6.20;;
55063;SDS011;40963;52.168;21.296;2023-09-18T09:13:23;6.88;;;5.28;;
55063;SDS011;40963;52.168;21.296;2023-09-18T09:15:51;6.95;;;5.72;;
55063;SDS011;40963;52.168;21.296;2023-09-18T09:18:19;9.40;;;6.20;;
55063;SDS011;40963;52.168;21.296;2023-09-18T09:20:55;7.85;;;5.80;;
55063;SDS011;40963;52.168;21.296;2023-09-18T09:23:25;9.52;;;5.85;;
55063;SDS011;40963;52.168;21.296;2023-09-18T09:25:52;9.80;;;5.90;;
55063;SDS011;40963;52.168;21.296;2023-09-18T09:28:31;5.72;;;5.15;;
55063;SDS011;40963;52.168;21.296;2023-09-18T09:31:03;7.43;;;5.05;;
55063;SDS011;40963;52.168;21.296;2023-09-18T09:33:29;6.97;;;4.38;;
55063;SDS011;40963;52.168;21.296;2023-09-18T09:35:56;10.60;;;4.88;;
55063;SDS011;40963;52.168;21.296;2023-09-18T09:38:27;5.45;;;4.88;;
55063;SDS011;40963;52.168;21.296;2023-09-18T09:40:56;7.53;;;4.82;;
55063;SDS011;40963;52.168;21.296;2023-09-18T09:43:24;5.45;;;4.88;;
55063;SDS011;40963;52.168;21.296;2023-09-18T09:45:56;4.55;;;4.15;;
55063;SDS011;40963;52.168;21.296;2023-09-18T09:48:23;7.18;;;4.72;;
55063;SDS011;40963;52.168;21.296;2023-09-18T09:50:50;5.25;;;4.50;;
55063;SDS011;40963;52.168;21.296;2023-09-18T09:53:16;4.55;;;4.00;;
55063;SDS011;40963;52.168;21.296;2023-09-18T09:55:43;6.65;;;4.65;;
55063;SDS011;40963;52.168;21.296;2023-09-18T09:58:09;9.63;;;4.65;;
55063;SDS011;40963;52.168;21.296;2023-09-18T10:00:41;5.47;;;4.40;;
55063;SDS011;40963;52.168;21.296;2023-09-18T10:03:15;4.97;;;4.18;;
55063;SDS011;40963;52.168;21.296;2023-09-18T10:05:44;5.38;;;3.83;;
55063;SDS011;40963;52.168;21.296;2023-09-18T10:08:12;4.25;;;3.85;;
55063;SDS011;40963;52.168;21.296;2023-09-18T10:10:47;4.50;;;2.85;;
55063;SDS011;40963;52.168;21.296;2023-09-18T10:13:17;3.00;;;2.20;;
55063;SDS011;40963;52.168;21.296;2023-09-18T10:15:44;3.58;;;2.50;;
55063;SDS011;40963;52.168;21.296;2023-09-18T10:20:50;3.72;;;2.60;;
55063;SDS011;40963;52.168;21.296;2023-09-18T10:23:25;2.67;;;2.47;;
55063;SDS011;40963;52.168;21.296;2023-09-18T10:25:59;3.08;;;2.72;;
55063;SDS011;40963;52.168;21.296;2023-09-18T10:28:28;3.40;;;3.10;;
55063;SDS011;40963;52.168;21.296;2023-09-18T10:30:56;3.53;;;3.22;;
55063;SDS011;40963;52.168;21.296;2023-09-18T10:33:23;3.35;;;3.05;;
55063;SDS011;40963;52.168;21.296;2023-09-18T10:35:49;3.53;;;3.05;;
55063;SDS011;40963;52.168;21.296;2023-09-18T10:38:18;4.72;;;3.20;;
55063;SDS011;40963;52.168;21.296;2023-09-18T10:40:44;4.63;;;3.10;;
55063;SDS011;40963;52.168;21.296;2023-09-18T10:43:12;3.17;;;2.88;;
55063;SDS011;40963;52.168;21.296;2023-09-18T10:45:41;3.15;;;2.85;;
55063;SDS011;40963;52.168;21.296;2023-09-18T10:48:07;4.22;;;3.47;;
55063;SDS011;40963;52.168;21.296;2023-09-18T10:50:33;3.08;;;2.78;;
55063;SDS011;40963;52.168;21.296;2023-09-18T10:53:00;6.25;;;2.80;;
55063;SDS011;40963;52.168;21.296;2023-09-18T10:55:25;3.58;;;2.35;;
55063;SDS011;40963;52.168;21.296;2023-09-18T10:57:52;3.40;;;2.47;;
55063;SDS011;40963;52.168;21.296;2023-09-18T11:00:19;3.00;;;2.70;;
55063;SDS011;40963;52.168;21.296;2023-09-18T11:02:54;2.83;;;2.63;;
55063;SDS011;40963;52.168;21.296;2023-09-18T11:05:38;2.90;;;2.60;;
55063;SDS011;40963;52.168;21.296;2023-09-18T11:11:02;2.50;;;2.30;;
55063;SDS011;40963;52.168;21.296;2023-09-18T11:21:25;2.40;;;2.20;;
55063;SDS011;40963;52.168;21.296;2023-09-18T11:23:59;3.40;;;2.30;;
55063;SDS011;40963;52.168;21.296;2023-09-18T11:26:34;2.80;;;2.20;;
55063;SDS011;40963;52.168;21.296;2023-09-18T11:29:09;3.33;;;2.58;;
55063;SDS011;40963;52.168;21.296;2023-09-18T11:31:43;2.85;;;2.53;;
55063;SDS011;40963;52.168;21.296;2023-09-18T11:34:19;3.30;;;2.97;;
55063;SDS011;40963;52.168;21.296;2023-09-18T11:36:51;3.10;;;2.55;;
55063;SDS011;40963;52.168;21.296;2023-09-18T11:42:09;3.15;;;2.50;;
55063;SDS011;40963;52.168;21.296;2023-09-18T11:44:36;3.30;;;3.05;;
55063;SDS011;40963;52.168;21.296;2023-09-18T11:47:10;2.83;;;2.63;;
55063;SDS011;40963;52.168;21.296;2023-09-18T11:49:53;3.50;;;3.20;;
55063;SDS011;40963;52.168;21.296;2023-09-18T11:52:24;4.03;;;3.55;;
55063;SDS011;40963;52.168;21.296;2023-09-18T11:54:51;7.88;;;3.47;;
55063;SDS011;40963;52.168;21.296;2023-09-18T11:57:19;3.38;;;3.03;;
55063;SDS011;40963;52.168;21.296;2023-09-18T11:59:45;5.22;;;3.17;;
55063;SDS011;40963;52.168;21.296;2023-09-18T12:02:32;4.57;;;3.42;;
55063;SDS011;40963;52.168;21.296;2023-09-18T12:05:14;4.45;;;3.60;;
55063;SDS011;40963;52.168;21.296;2023-09-18T12:07:43;3.92;;;3.53;;
55063;SDS011;40963;52.168;21.296;2023-09-18T12:10:10;3.58;;;3.28;;
55063;SDS011;40963;52.168;21.296;2023-09-18T12:12:37;4.45;;;3.38;;
55063;SDS011;40963;52.168;21.296;2023-09-18T12:15:03;5.25;;;3.70;;
55063;SDS011;40963;52.168;21.296;2023-09-18T12:17:29;3.78;;;3.47;;
55063;SDS011;40963;52.168;21.296;2023-09-18T12:19:55;4.25;;;3.83;;
55063;SDS011;40963;52.168;21.296;2023-09-18T12:22:24;5.82;;;3.30;;
55063;SDS011;40963;52.168;21.296;2023-09-18T12:24:51;8.38;;;3.13;;
55063;SDS011;40963;52.168;21.296;2023-09-18T12:27:17;6.18;;;3.38;;
55063;SDS011;40963;52.168;21.296;2023-09-18T12:29:43;4.70;;;3.88;;
55063;SDS011;40963;52.168;21.296;2023-09-18T12:32:09;6.72;;;4.05;;
55063;SDS011;40963;52.168;21.296;2023-09-18T12:34:40;4.25;;;3.85;;
55063;SDS011;40963;52.168;21.296;2023-09-18T12:37:08;4.13;;;3.72;;
55063;SDS011;40963;52.168;21.296;2023-09-18T12:39:37;8.02;;;3.95;;
55063;SDS011;40963;52.168;21.296;2023-09-18T12:42:03;4.95;;;4.20;;
55063;SDS011;40963;52.168;21.296;2023-09-18T12:44:30;7.70;;;4.25;;
55063;SDS011;40963;52.168;21.296;2023-09-18T12:46:56;4.20;;;3.80;;
55063;SDS011;40963;52.168;21.296;2023-09-18T12:49:23;5.10;;;3.95;;
55063;SDS011;40963;52.168;21.296;2023-09-18T12:54:44;7.28;;;4.18;;
55063;SDS011;40963;52.168;21.296;2023-09-18T12:57:19;5.78;;;4.22;;
55063;SDS011;40963;52.168;21.296;2023-09-18T12:59:45;5.72;;;4.32;;
55063;SDS011;40963;52.168;21.296;2023-09-18T13:02:18;4.20;;;3.80;;
55063;SDS011;40963;52.168;21.296;2023-09-18T13:04:54;8.55;;;4.15;;
55063;SDS011;40963;52.168;21.296;2023-09-18T13:07:23;4.93;;;4.15;;
55063;SDS011;40963;52.168;21.296;2023-09-18T13:10:02;4.60;;;4.18;;
55063;SDS011;40963;52.168;21.296;2023-09-18T13:12:46;6.15;;;3.60;;
55063;SDS011;40963;52.168;21.296;2023-09-18T13:18:15;4.43;;;4.03;;
55063;SDS011;40963;52.168;21.296;2023-09-18T13:20:42;4.55;;;3.88;;
55063;SDS011;40963;52.168;21.296;2023-09-18T13:23:08;4.30;;;3.90;;
55063;SDS011;40963;52.168;21.296;2023-09-18T13:25:38;5.32;;;4.13;;
55063;SDS011;40963;52.168;21.296;2023-09-18T13:28:06;4.43;;;3.90;;
55063;SDS011;40963;52.168;21.296;2023-09-18T13:30:34;4.28;;;3.88;;
55063;SDS011;40963;52.168;21.296;2023-09-18T13:33:11;4.95;;;4.22;;
55063;SDS011;40963;52.168;21.296;2023-09-18T13:35:41;4.10;;;3.80;;
55063;SDS011;40963;52.168;21.296;2023-09-18T13:38:08;4.40;;;4.00;;
55063;SDS011;40963;52.168;21.296;2023-09-18T13:40:35;5.72;;;4.35;;
55063;SDS011;40963;52.168;21.296;2023-09-18T13:43:03;6.43;;;4.13;;
55063;SDS011;40963;52.168;21.296;2023-09-18T13:45:35;6.18;;;4.07;;
55063;SDS011;40963;52.168;21.296;2023-09-18T13:48:02;4.28;;;3.45;;
55063;SDS011;40963;52.168;21.296;2023-09-18T13:50:28;8.32;;;4.32;;
55063;SDS011;40963;52.168;21.296;2023-09-18T13:52:54;4.80;;;4.30;;
55063;SDS011;40963;52.168;21.296;2023-09-18T13:55:19;4.85;;;3.65;;
55063;SDS011;40963;52.168;21.296;2023-09-18T13:57:45;6.15;;;3.58;;
55063;SDS011;40963;52.168;21.296;2023-09-18T14:00:12;3.90;;;3.42;;
55063;SDS011;40963;52.168;21.296;2023-09-18T14:02:39;4.88;;;4.00;;
55063;SDS011;40963;52.168;21.296;2023-09-18T14:05:06;5.30;;;3.95;;
55063;SDS011;40963;52.168;21.296;2023-09-18T14:07:32;3.90;;;3.60;;
55063;SDS011;40963;52.168;21.296;2023-09-18T14:09:59;5.03;;;4.22;;
55063;SDS011;40963;52.168;21.296;2023-09-18T14:12:28;5.85;;;2.88;;
55063;SDS011;40963;52.168;21.296;2023-09-18T14:14:55;4.25;;;3.60;;
55063;SDS011;40963;52.168;21.296;2023-09-18T14:17:21;6.78;;;3.78;;
55063;SDS011;40963;52.168;21.296;2023-09-18T14:19:47;4.53;;;3.88;;
55063;SDS011;40963;52.168;21.296;2023-09-18T14:22:13;7.43;;;3.92;;
55063;SDS011;40963;52.168;21.296;2023-09-18T14:24:39;3.80;;;3.50;;
55063;SDS011;40963;52.168;21.296;2023-09-18T14:27:05;3.72;;;3.42;;
55063;SDS011;40963;52.168;21.296;2023-09-18T14:29:31;4.15;;;3.50;;
55063;SDS011;40963;52.168;21.296;2023-09-18T14:31:58;6.05;;;3.20;;
55063;SDS011;40963;52.168;21.296;2023-09-18T14:34:24;3.95;;;3.35;;
55063;SDS011;40963;52.168;21.296;2023-09-18T14:36:50;4.43;;;3.60;;
55063;SDS011;40963;52.168;21.296;2023-09-18T14:39:16;4.05;;;3.63;;
55063;SDS011;40963;52.168;21.296;2023-09-18T14:41:42;3.70;;;3.40;;
55063;SDS011;40963;52.168;21.296;2023-09-18T14:44:08;6.75;;;3.97;;
55063;SDS011;40963;52.168;21.296;2023-09-18T14:46:34;5.03;;;4.13;;
55063;SDS011;40963;52.168;21.296;2023-09-18T14:49:02;6.22;;;4.28;;
55063;SDS011;40963;52.168;21.296;2023-09-18T14:51:28;9.15;;;4.32;;
55063;SDS011;40963;52.168;21.296;2023-09-18T14:53:54;5.30;;;4.50;;